Time;durP1;ratioP1;P1;durP2;ratioP2;P2;SDS_P1;SDS_P2;PMS_P1;PMS_P2;Temp;Humidity;BMP_temperature;BMP_pressure;BME280_temperature;BME280_humidity;BME280_pressure;Samples;Min_cycle;Max_cycle;Signal;HPM_P1;HPM_P2
2022/05/27 00:00:08;;;;;;;5.00;2.00;;;;;;;;;;6172534;23;20195;-87
2022/05/27 00:03:14;;;;;;;4.70;2.13;;;;;;;;;;6190377;23;20175;-87
2022/05/27 00:06:21;;;;;;;5.28;1.90;;;;;;;;;;6171904;23;20179;-87
2022/05/27 00:09:28;;;;;;;3.15;1.80;;;;;;;;;;6173859;23;20184;-87
2022/05/27 00:12:33;;;;;;;3.42;1.92;;;;;;;;;;6180656;23;20400;-87
2022/05/27 00:15:39;;;;;;;3.40;1.80;;;;;;;;;;6175321;23;20175;-87
2022/05/27 00:18:44;;;;;;;4.57;1.90;;;;;;;;;;6177210;23;20176;-88
2022/05/27 00:21:49;;;;;;;3.53;2.20;;;;;;;;;;6177169;23;20206;-88
2022/05/27 00:24:55;;;;;;;6.00;2.20;;;;;;;;;;6178937;23;20288;-86
2022/05/27 00:28:02;;;;;;;7.20;2.20;;;;;;;;;;6190930;23;20290;-87
2022/05/27 00:31:08;;;;;;;4.72;2.20;;;;;;;;;;6192533;23;20196;-87
2022/05/27 00:34:14;;;;;;;5.10;1.98;;;;;;;;;;6192956;23;20203;-87
2022/05/27 00:37:19;;;;;;;3.28;2.10;;;;;;;;;;6188536;23;20179;-87
2022/05/27 00:40:27;;;;;;;5.90;2.30;;;;;;;;;;6177005;23;20191;-87
2022/05/27 00:43:32;;;;;;;6.05;2.17;;;;;;;;;;6175863;23;20179;-88
2022/05/27 00:46:37;;;;;;;4.78;2.15;;;;;;;;;;6176226;23;20405;-88
2022/05/27 00:49:45;;;;;;;3.00;2.00;;;;;;;;;;6176317;23;20254;-86
2022/05/27 00:52:51;;;;;;;8.15;2.38;;;;;;;;;;6174340;23;20284;-87
2022/05/27 00:56:00;;;;;;;5.40;1.75;;;;;;;;;;6173213;23;20288;-86
2022/05/27 00:59:07;;;;;;;2.97;2.10;;;;;;;;;;6175323;23;20180;-87
2022/05/27 01:02:12;;;;;;;9.63;2.45;;;;;;;;;;6174806;23;20319;-87
2022/05/27 01:05:18;;;;;;;5.15;2.22;;;;;;;;;;6173086;23;20288;-86
2022/05/27 01:08:25;;;;;;;9.50;2.88;;;;;;;;;;6173602;23;20444;-87
2022/05/27 01:11:36;;;;;;;2.97;1.98;;;;;;;;;;6173901;23;20172;-88
2022/05/27 01:14:45;;;;;;;2.67;1.90;;;;;;;;;;6173890;23;20180;-88
2022/05/27 01:18:03;;;;;;;3.88;2.00;;;;;;;;;;6173751;23;20349;-87
2022/05/27 01:21:11;;;;;;;6.25;2.65;;;;;;;;;;6171967;23;20580;-87
2022/05/27 01:24:35;;;;;;;4.05;2.35;;;;;;;;;;6173686;23;20195;-87
2022/05/27 01:27:57;;;;;;;3.38;1.92;;;;;;;;;;6192425;23;20325;-87
2022/05/27 01:31:17;;;;;;;4.60;2.30;;;;;;;;;;6173880;23;20276;-87
2022/05/27 01:34:30;;;;;;;4.93;2.03;;;;;;;;;;6174108;23;20204;-87
2022/05/27 01:37:41;;;;;;;5.35;2.10;;;;;;;;;;6174292;23;20219;-86
2022/05/27 01:40:50;;;;;;;3.65;1.77;;;;;;;;;;6174040;23;20257;-86
2022/05/27 01:44:20;;;;;;;6.53;2.10;;;;;;;;;;6174225;23;20188;-86
2022/05/27 01:47:42;;;;;;;5.88;2.10;;;;;;;;;;6173508;23;20175;-86
2022/05/27 01:51:23;;;;;;;;;;;;;;;;;;;;;
2022/05/27 01:54:43;;;;;;;6.47;1.90;;;;;;;;;;6181768;23;20184;-86
2022/05/27 01:57:54;;;;;;;3.78;1.90;;;;;;;;;;6173318;23;20413;-86
2022/05/27 02:01:13;;;;;;;3.47;1.98;;;;;;;;;;6173859;23;20231;-86
2022/05/27 02:04:21;;;;;;;5.10;2.20;;;;;;;;;;6173583;23;20176;-86
2022/05/27 02:07:30;;;;;;;4.00;1.73;;;;;;;;;;6173380;23;20180;-86
2022/05/27 02:10:38;;;;;;;2.92;1.95;;;;;;;;;;6173141;23;20210;-86
2022/05/27 02:13:56;;;;;;;9.27;2.20;;;;;;;;;;6178566;23;20195;-86
2022/05/27 02:17:15;;;;;;;2.40;1.85;;;;;;;;;;6180497;23;20203;-86
2022/05/27 02:20:30;;;;;;;5.50;2.20;;;;;;;;;;6190562;23;20195;-87
2022/05/27 02:23:41;;;;;;;3.45;2.25;;;;;;;;;;6160917;23;20395;-87
2022/05/27 02:26:48;;;;;;;3.65;2.22;;;;;;;;;;6160834;23;20196;-87
2022/05/27 02:29:56;;;;;;;4.53;2.15;;;;;;;;;;6161389;23;20176;-87
2022/05/27 02:36:27;;;;;;;4.50;2.13;;;;;;;;;;6161116;23;20404;-86
2022/05/27 02:39:34;;;;;;;4.30;1.90;;;;;;;;;;6161143;23;20177;-86
2022/05/27 02:42:51;;;;;;;4.55;2.10;;;;;;;;;;6161510;23;20199;-87
2022/05/27 02:45:59;;;;;;;4.53;2.10;;;;;;;;;;6160939;23;20181;-86
2022/05/27 02:49:08;;;;;;;4.15;1.90;;;;;;;;;;6145387;23;20581;-87
2022/05/27 02:52:18;;;;;;;4.45;2.22;;;;;;;;;;6162215;23;20297;-86
2022/05/27 02:55:30;;;;;;;2.75;2.15;;;;;;;;;;6181221;23;20238;-86
2022/05/27 02:58:35;;;;;;;6.35;2.40;;;;;;;;;;6164892;23;20160;-87
2022/05/27 03:01:42;;;;;;;5.70;2.40;;;;;;;;;;6181783;23;20199;-87
2022/05/27 03:04:52;;;;;;;3.10;2.22;;;;;;;;;;6181049;23;20172;-87
2022/05/27 03:08:05;;;;;;;5.32;3.03;;;;;;;;;;6183447;23;20160;-86
2022/05/27 03:11:15;;;;;;;3.55;2.60;;;;;;;;;;6183322;23;20182;-87
2022/05/27 03:14:27;;;;;;;3.10;2.60;;;;;;;;;;6183251;23;20209;-86
2022/05/27 03:17:42;;;;;;;4.18;2.70;;;;;;;;;;6184417;23;20177;-86
2022/05/27 03:25:14;;;;;;;3.67;2.20;;;;;;;;;;6162181;23;20216;-87
2022/05/27 03:28:25;;;;;;;5.40;2.78;;;;;;;;;;6128214;23;20195;-87
2022/05/27 03:31:33;;;;;;;4.80;2.42;;;;;;;;;;6163257;23;20172;-86
2022/05/27 03:34:41;;;;;;;3.58;2.53;;;;;;;;;;6161526;23;20229;-86
2022/05/27 03:37:50;;;;;;;4.55;2.50;;;;;;;;;;6171083;23;20167;-85
2022/05/27 03:40:57;;;;;;;6.05;2.30;;;;;;;;;;6143425;23;20196;-86
2022/05/27 03:44:04;;;;;;;9.57;2.50;;;;;;;;;;6160630;23;20215;-86
2022/05/27 03:47:09;;;;;;;6.13;2.30;;;;;;;;;;6142329;23;20184;-87
2022/05/27 03:50:16;;;;;;;3.50;2.15;;;;;;;;;;6160461;23;20177;-87
2022/05/27 03:53:21;;;;;;;5.03;2.25;;;;;;;;;;6142658;23;20173;-87
2022/05/27 03:56:28;;;;;;;5.57;2.20;;;;;;;;;;6158506;23;20172;-86
2022/05/27 03:59:34;;;;;;;5.22;2.58;;;;;;;;;;6142201;23;20530;-85
2022/05/27 04:02:40;;;;;;;4.30;2.63;;;;;;;;;;6159103;23;20196;-87
2022/05/27 04:05:45;;;;;;;5.43;2.47;;;;;;;;;;6158823;23;20533;-86
2022/05/27 04:08:50;;;;;;;5.03;2.35;;;;;;;;;;6141965;23;20225;-87
2022/05/27 04:11:57;;;;;;;3.00;2.13;;;;;;;;;;6141928;23;20172;-86
2022/05/27 04:15:05;;;;;;;7.82;2.40;;;;;;;;;;6159988;23;20288;-86
2022/05/27 04:18:10;;;;;;;4.35;2.30;;;;;;;;;;6159087;23;20296;-87
2022/05/27 04:21:16;;;;;;;12.30;2.47;;;;;;;;;;6158958;23;20203;-87
2022/05/27 04:24:22;;;;;;;4.50;2.63;;;;;;;;;;6156054;23;20239;-87
2022/05/27 04:27:27;;;;;;;4.07;2.47;;;;;;;;;;6141793;23;20180;-86
2022/05/27 04:30:34;;;;;;;10.00;2.53;;;;;;;;;;6141616;23;20400;-87
2022/05/27 04:33:39;;;;;;;6.07;2.40;;;;;;;;;;6142330;23;20208;-86
2022/05/27 04:36:44;;;;;;;9.85;3.00;;;;;;;;;;6158948;23;20216;-86
2022/05/27 04:39:50;;;;;;;6.10;2.83;;;;;;;;;;6142198;23;20181;-86
2022/05/27 04:42:55;;;;;;;6.65;2.80;;;;;;;;;;6142004;23;20200;-86
2022/05/27 04:46:02;;;;;;;3.45;2.35;;;;;;;;;;6142025;23;20177;-86
2022/05/27 04:49:07;;;;;;;5.25;2.85;;;;;;;;;;6142657;23;20288;-86
2022/05/27 04:52:13;;;;;;;7.65;2.25;;;;;;;;;;6142184;23;20177;-87
2022/05/27 04:55:18;;;;;;;5.88;2.00;;;;;;;;;;6142810;23;20184;-86
2022/05/27 04:58:24;;;;;;;5.55;2.78;;;;;;;;;;6146093;23;20222;-86
2022/05/27 05:01:30;;;;;;;6.10;2.58;;;;;;;;;;6167543;23;20368;-86
2022/05/27 05:04:37;;;;;;;9.77;3.00;;;;;;;;;;6146088;23;20413;-86
2022/05/27 05:07:43;;;;;;;4.68;3.00;;;;;;;;;;6163835;23;20172;-85
2022/05/27 05:10:48;;;;;;;7.35;3.55;;;;;;;;;;6180094;23;20175;-86
2022/05/27 05:13:53;;;;;;;6.57;2.60;;;;;;;;;;6178521;23;20197;-87
2022/05/27 05:17:00;;;;;;;3.70;2.40;;;;;;;;;;6158981;23;20181;-87
2022/05/27 05:20:08;;;;;;;4.75;2.83;;;;;;;;;;6159420;23;20400;-85
2022/05/27 05:23:15;;;;;;;4.75;2.70;;;;;;;;;;6174603;23;20216;-86
2022/05/27 05:26:31;;;;;;;6.40;2.67;;;;;;;;;;6205684;23;20418;-86
2022/05/27 05:29:37;;;;;;;4.88;2.50;;;;;;;;;;6188077;23;20176;-86
2022/05/27 05:32:43;;;;;;;6.80;2.42;;;;;;;;;;6190624;23;20552;-85
2022/05/27 05:35:48;;;;;;;4.32;2.70;;;;;;;;;;6207605;23;20248;-86
2022/05/27 05:38:54;;;;;;;5.57;2.75;;;;;;;;;;6174473;23;20684;-86
2022/05/27 05:42:00;;;;;;;5.60;2.90;;;;;;;;;;6174620;23;20199;-86
2022/05/27 05:45:06;;;;;;;10.02;2.85;;;;;;;;;;6172187;23;20172;-87
2022/05/27 05:48:12;;;;;;;5.10;2.40;;;;;;;;;;6191795;23;20176;-86
2022/05/27 05:51:17;;;;;;;10.93;2.95;;;;;;;;;;6174334;23;20528;-86
2022/05/27 05:54:27;;;;;;;6.78;2.83;;;;;;;;;;6173385;23;20352;-86
2022/05/27 05:57:32;;;;;;;4.95;2.42;;;;;;;;;;6172864;23;20226;-86
2022/05/27 06:00:37;;;;;;;3.92;2.65;;;;;;;;;;6173288;23;20457;-86
2022/05/27 06:03:43;;;;;;;10.07;2.80;;;;;;;;;;6174364;23;20168;-87
2022/05/27 06:06:49;;;;;;;3.30;2.15;;;;;;;;;;6172141;23;20211;-86
2022/05/27 06:09:55;;;;;;;8.02;2.40;;;;;;;;;;6191029;23;20179;-86
2022/05/27 06:13:03;;;;;;;6.50;2.30;;;;;;;;;;6173506;23;20444;-87
2022/05/27 06:16:09;;;;;;;6.72;2.20;;;;;;;;;;6172607;23;20230;-86
2022/05/27 06:19:17;;;;;;;5.30;2.30;;;;;;;;;;6171582;23;20187;-86
2022/05/27 06:22:22;;;;;;;9.05;2.33;;;;;;;;;;6172455;23;20479;-87
2022/05/27 06:25:28;;;;;;;8.00;2.90;;;;;;;;;;6172171;23;20175;-86
2022/05/27 06:35:45;;;;;;;2.65;1.75;;;;;;;;;;6171495;23;20172;-86
2022/05/27 06:38:50;;;;;;;4.13;1.88;;;;;;;;;;6172744;23;20394;-86
2022/05/27 06:41:58;;;;;;;3.55;2.00;;;;;;;;;;6190223;23;20198;-87
2022/05/27 06:45:11;;;;;;;4.20;1.88;;;;;;;;;;6172522;23;20415;-88
2022/05/27 06:48:17;;;;;;;5.82;1.60;;;;;;;;;;6174714;23;20264;-87
2022/05/27 06:51:23;;;;;;;7.35;1.55;;;;;;;;;;6175492;23;20175;-86
2022/05/27 06:54:29;;;;;;;6.90;1.60;;;;;;;;;;6174770;23;20291;-87
2022/05/27 06:57:35;;;;;;;4.43;1.30;;;;;;;;;;6172321;23;20183;-87
2022/05/27 07:00:41;;;;;;;12.80;1.70;;;;;;;;;;6173283;23;20211;-87
2022/05/27 07:03:46;;;;;;;6.55;1.60;;;;;;;;;;6183440;23;20194;-88
2022/05/27 07:06:56;;;;;;;8.80;2.70;;;;;;;;;;6183411;23;20235;-86
2022/05/27 07:10:01;;;;;;;5.68;1.90;;;;;;;;;;6175198;23;20172;-87
2022/05/27 07:13:07;;;;;;;2.58;1.50;;;;;;;;;;6190944;23;20175;-87
2022/05/27 07:16:12;;;;;;;5.68;1.23;;;;;;;;;;6171643;23;20264;-88
2022/05/27 07:19:20;;;;;;;5.72;1.40;;;;;;;;;;6171772;23;20227;-87
2022/05/27 07:22:27;;;;;;;5.05;1.13;;;;;;;;;;6172530;23;20323;-86
2022/05/27 07:25:35;;;;;;;6.43;1.80;;;;;;;;;;6176492;23;20168;-86
2022/05/27 07:28:40;;;;;;;6.28;1.42;;;;;;;;;;6191002;23;20164;-86
2022/05/27 07:31:46;;;;;;;5.75;1.35;;;;;;;;;;6188189;23;20171;-87
2022/05/27 07:34:50;;;;;;;5.05;1.25;;;;;;;;;;6174404;23;20206;-87
2022/05/27 07:37:57;;;;;;;6.68;1.65;;;;;;;;;;6176513;23;20192;-87
2022/05/27 07:41:03;;;;;;;4.10;1.40;;;;;;;;;;6193789;23;20395;-87
2022/05/27 07:44:08;;;;;;;10.27;1.70;;;;;;;;;;6177349;23;20176;-87
2022/05/27 07:47:14;;;;;;;4.78;1.42;;;;;;;;;;6176612;23;20429;-88
2022/05/27 07:50:22;;;;;;;5.28;1.55;;;;;;;;;;6175561;23;20172;-87
2022/05/27 07:53:29;;;;;;;3.25;1.23;;;;;;;;;;6175444;23;20167;-87
2022/05/27 07:56:35;;;;;;;6.22;1.42;;;;;;;;;;6192472;23;20414;-86
2022/05/27 07:59:41;;;;;;;5.80;1.30;;;;;;;;;;6175139;23;20536;-86
2022/05/27 08:02:47;;;;;;;3.53;1.40;;;;;;;;;;6174819;23;20303;-87
2022/05/27 08:05:53;;;;;;;7.97;1.90;;;;;;;;;;6175654;23;20171;-87
2022/05/27 08:09:02;;;;;;;4.90;1.40;;;;;;;;;;6176886;23;20223;-87
2022/05/27 08:12:09;;;;;;;9.98;1.40;;;;;;;;;;6176064;23;20172;-88
2022/05/27 08:15:15;;;;;;;4.07;1.30;;;;;;;;;;6175444;23;20533;-87
2022/05/27 08:18:20;;;;;;;6.57;1.40;;;;;;;;;;6193352;23;20215;-88
2022/05/27 08:21:27;;;;;;;7.57;1.60;;;;;;;;;;6175055;23;20230;-87
2022/05/27 08:24:34;;;;;;;2.95;1.65;;;;;;;;;;6174991;23;20587;-86
2022/05/27 08:27:40;;;;;;;4.60;1.45;;;;;;;;;;6192789;23;20176;-86
2022/05/27 08:30:46;;;;;;;6.57;1.63;;;;;;;;;;6175222;23;20209;-86
2022/05/27 08:41:04;;;;;;;9.07;1.67;;;;;;;;;;6178545;23;20166;-87
2022/05/27 08:44:16;;;;;;;5.47;1.42;;;;;;;;;;6196584;23;20203;-87
2022/05/27 08:47:24;;;;;;;9.10;1.58;;;;;;;;;;6178930;23;20674;-88
2022/05/27 08:50:32;;;;;;;7.07;1.77;;;;;;;;;;6160394;23;20544;-87
2022/05/27 08:53:40;;;;;;;3.75;2.03;;;;;;;;;;6176138;23;20167;-87
2022/05/27 09:00:14;;;;;;;5.50;1.80;;;;;;;;;;6175262;23;20512;-87
2022/05/27 09:03:19;;;;;;;9.23;2.00;;;;;;;;;;6175483;23;20203;-87
2022/05/27 09:06:29;;;;;;;4.55;1.60;;;;;;;;;;6176424;23;20291;-86
2022/05/27 09:09:35;;;;;;;5.82;1.55;;;;;;;;;;6176223;23;20508;-87
2022/05/27 09:12:45;;;;;;;7.38;2.15;;;;;;;;;;6175866;23;20171;-88
2022/05/27 09:15:56;;;;;;;8.23;2.00;;;;;;;;;;6175867;23;20192;-87
2022/05/27 09:19:07;;;;;;;3.67;1.92;;;;;;;;;;6174810;23;20528;-88
2022/05/27 09:22:18;;;;;;;4.97;1.40;;;;;;;;;;6192757;23;20548;-88
2022/05/27 09:25:27;;;;;;;5.25;2.30;;;;;;;;;;6176920;23;20172;-88
2022/05/27 09:28:38;;;;;;;5.28;1.73;;;;;;;;;;6193626;23;20188;-89
2022/05/27 09:31:47;;;;;;;5.40;1.40;;;;;;;;;;6157221;23;20171;-89
2022/05/27 09:34:54;;;;;;;5.78;1.88;;;;;;;;;;6176298;23;20314;-88
2022/05/27 09:38:01;;;;;;;3.20;1.60;;;;;;;;;;6176980;23;20191;-89
2022/05/27 09:41:12;;;;;;;3.95;1.50;;;;;;;;;;6178126;23;20244;-89
2022/05/27 09:44:20;;;;;;;2.92;1.42;;;;;;;;;;6175549;23;20296;-89
2022/05/27 09:47:29;;;;;;;7.65;2.05;;;;;;;;;;6174490;23;20176;-89
2022/05/27 09:50:39;;;;;;;4.18;1.55;;;;;;;;;;6177071;23;20179;-87
2022/05/27 09:53:46;;;;;;;4.03;1.85;;;;;;;;;;6176078;23;20175;-88
2022/05/27 09:56:59;;;;;;;5.95;1.85;;;;;;;;;;6176555;23;20287;-87
2022/05/27 10:00:11;;;;;;;7.68;2.10;;;;;;;;;;6175480;23;20176;-88
2022/05/27 10:03:22;;;;;;;3.58;1.65;;;;;;;;;;6174945;23;20288;-89
2022/05/27 10:06:30;;;;;;;5.43;1.70;;;;;;;;;;6176749;23;20184;-88
2022/05/27 10:09:39;;;;;;;4.28;1.90;;;;;;;;;;6175319;23;20508;-88
2022/05/27 10:12:44;;;;;;;4.95;2.03;;;;;;;;;;6176020;23;20167;-87
2022/05/27 10:15:50;;;;;;;3.08;1.58;;;;;;;;;;6177793;23;20172;-89
2022/05/27 10:19:15;;;;;;;5.80;1.70;;;;;;;;;;6177798;23;20176;-86
2022/05/27 10:22:25;;;;;;;8.90;1.92;;;;;;;;;;6180833;23;20244;-88
2022/05/27 10:25:36;;;;;;;3.58;1.65;;;;;;;;;;6177939;23;20183;-88
2022/05/27 10:28:42;;;;;;;6.70;1.60;;;;;;;;;;6180695;23;20276;-88
2022/05/27 10:31:51;;;;;;;4.78;2.08;;;;;;;;;;6177727;23;20242;-88
2022/05/27 10:34:59;;;;;;;6.55;2.00;;;;;;;;;;6176027;23;20310;-87
2022/05/27 10:38:13;;;;;;;3.60;1.65;;;;;;;;;;6173223;23;20172;-88
2022/05/27 10:41:22;;;;;;;7.03;2.75;;;;;;;;;;6173959;23;20192;-88
2022/05/27 10:44:31;;;;;;;6.07;1.88;;;;;;;;;;6176843;23;20227;-88
2022/05/27 10:47:46;;;;;;;4.57;2.00;;;;;;;;;;6177099;23;20179;-88
2022/05/27 10:50:57;;;;;;;9.98;1.90;;;;;;;;;;6176007;23;20180;-88
2022/05/27 10:54:09;;;;;;;4.60;2.45;;;;;;;;;;6175566;23;20238;-87
2022/05/27 11:04:30;;;;;;;5.05;1.90;;;;;;;;;;6175599;23;20243;-88
2022/05/27 11:07:40;;;;;;;7.80;2.15;;;;;;;;;;6195650;23;20172;-87
2022/05/27 11:10:49;;;;;;;6.05;2.10;;;;;;;;;;6177592;23;20467;-88
2022/05/27 11:17:32;;;;;;;7.13;1.60;;;;;;;;;;6176718;23;20172;-88
2022/05/27 11:20:43;;;;;;;5.68;1.80;;;;;;;;;;6176579;23;20302;-89
2022/05/27 11:24:07;;;;;;;4.60;1.77;;;;;;;;;;6175695;23;20277;-88
2022/05/27 11:27:20;;;;;;;4.30;1.45;;;;;;;;;;6175781;23;20671;-89
2022/05/27 11:30:28;;;;;;;3.17;1.48;;;;;;;;;;6177399;23;20175;-89
2022/05/27 11:33:46;;;;;;;5.85;1.45;;;;;;;;;;6175438;23;20204;-89
2022/05/27 11:37:01;;;;;;;3.22;1.80;;;;;;;;;;6173274;23;20176;-88
2022/05/27 11:40:18;;;;;;;3.45;1.90;;;;;;;;;;6177814;23;20175;-88
2022/05/27 11:43:42;;;;;;;4.07;2.00;;;;;;;;;;6177188;23;20199;-88
2022/05/27 11:46:59;;;;;;;5.50;1.98;;;;;;;;;;6176480;23;20171;-89
2022/05/27 11:50:11;;;;;;;5.80;2.15;;;;;;;;;;6178963;23;20179;-88
2022/05/27 11:53:31;;;;;;;5.70;1.88;;;;;;;;;;6178246;23;20175;-87
2022/05/27 11:56:50;;;;;;;5.00;1.58;;;;;;;;;;6177651;23;20221;-87
2022/05/27 11:59:58;;;;;;;4.40;1.40;;;;;;;;;;6177619;23;20538;-88
2022/05/27 12:03:04;;;;;;;4.10;1.48;;;;;;;;;;6178968;23;20557;-87
2022/05/27 12:06:11;;;;;;;6.03;1.45;;;;;;;;;;6174476;23;20264;-89
2022/05/27 12:09:22;;;;;;;5.53;1.27;;;;;;;;;;6187606;23;20179;-86
2022/05/27 12:12:35;;;;;;;5.93;2.45;;;;;;;;;;6180885;23;20182;-88
2022/05/27 12:15:43;;;;;;;3.10;1.30;;;;;;;;;;6177952;23;20529;-89
2022/05/27 12:18:51;;;;;;;5.60;1.73;;;;;;;;;;6179328;23;20262;-88
2022/05/27 12:22:01;;;;;;;5.80;1.60;;;;;;;;;;6179094;23;20537;-88
2022/05/27 12:25:08;;;;;;;2.40;1.05;;;;;;;;;;6195095;23;20693;-88
2022/05/27 12:28:18;;;;;;;6.10;1.30;;;;;;;;;;6176847;23;20575;-88
2022/05/27 12:31:24;;;;;;;3.88;1.17;;;;;;;;;;6175409;23;20171;-87
2022/05/27 12:34:36;;;;;;;8.15;1.30;;;;;;;;;;6175284;23;20621;-87
2022/05/27 12:37:48;;;;;;;2.55;0.90;;;;;;;;;;6183295;23;20215;-88
2022/05/27 12:40:56;;;;;;;3.50;1.20;;;;;;;;;;6183889;23;20619;-88
2022/05/27 12:44:13;;;;;;;4.47;1.25;;;;;;;;;;6187494;23;20222;-87
2022/05/27 12:47:20;;;;;;;7.20;1.25;;;;;;;;;;6178337;23;20180;-87
2022/05/27 12:50:27;;;;;;;7.53;1.33;;;;;;;;;;6177404;23;20191;-89
2022/05/27 12:53:46;;;;;;;2.25;1.08;;;;;;;;;;6178572;23;20179;-86
2022/05/27 13:03:56;;;;;;;2.70;0.90;;;;;;;;;;6194754;23;20612;-89
2022/05/27 13:07:07;;;;;;;5.97;1.60;;;;;;;;;;6178635;23;20299;-89
2022/05/27 13:10:41;;;;;;;4.90;1.00;;;;;;;;;;6176482;23;20179;-88
2022/05/27 13:13:46;;;;;;;6.38;1.13;;;;;;;;;;6177720;23;20180;-87
2022/05/27 13:17:01;;;;;;;5.95;1.45;;;;;;;;;;6176225;23;20576;-86
2022/05/27 13:20:21;;;;;;;3.00;1.23;;;;;;;;;;6178443;23;20188;-86
2022/05/27 13:23:29;;;;;;;3.28;0.98;;;;;;;;;;6177841;23;20199;-87
2022/05/27 13:26:40;;;;;;;2.10;1.05;;;;;;;;;;6176857;23;20276;-87
2022/05/27 13:29:46;;;;;;;4.80;1.17;;;;;;;;;;6177270;23;20175;-88
2022/05/27 13:36:31;;;;;;;2.67;1.20;;;;;;;;;;6179329;23;20164;-88
2022/05/27 13:39:43;;;;;;;9.43;1.55;;;;;;;;;;6176672;23;20191;-86
2022/05/27 13:42:49;;;;;;;5.28;1.20;;;;;;;;;;6181766;23;20188;-87
2022/05/27 13:45:56;;;;;;;7.85;1.90;;;;;;;;;;6212356;23;20175;-88
2022/05/27 13:49:03;;;;;;;13.35;6.22;;;;;;;;;;6194609;23;20155;-87
2022/05/27 13:52:17;;;;;;;2.47;1.42;;;;;;;;;;6195049;23;20223;-86
2022/05/27 13:55:27;;;;;;;5.05;1.20;;;;;;;;;;6195178;23;20156;-88
2022/05/27 13:58:34;;;;;;;4.68;1.30;;;;;;;;;;6196816;23;20169;-87
2022/05/27 14:01:41;;;;;;;2.60;1.30;;;;;;;;;;6196204;23;20187;-86
2022/05/27 14:04:49;;;;;;;6.18;1.40;;;;;;;;;;6196009;23;20227;-88
2022/05/27 14:07:58;;;;;;;2.15;1.20;;;;;;;;;;6196592;23;20176;-88
2022/05/27 14:11:07;;;;;;;2.63;1.15;;;;;;;;;;6179702;23;20483;-89
2022/05/27 14:14:12;;;;;;;2.88;1.40;;;;;;;;;;6179206;23;20237;-87
2022/05/27 14:17:19;;;;;;;2.30;1.20;;;;;;;;;;6178771;23;20179;-90
2022/05/27 14:20:27;;;;;;;4.57;1.27;;;;;;;;;;6175486;23;20176;-86
2022/05/27 14:23:38;;;;;;;5.68;1.40;;;;;;;;;;6175575;23;20180;-89
2022/05/27 14:26:43;;;;;;;4.53;1.20;;;;;;;;;;6177450;23;20252;-87
2022/05/27 14:29:49;;;;;;;6.22;1.17;;;;;;;;;;6176719;23;20179;-87
2022/05/27 14:32:55;;;;;;;6.20;1.25;;;;;;;;;;6176551;23;20215;-87
2022/05/27 14:36:03;;;;;;;3.17;1.40;;;;;;;;;;6176623;23;20175;-87
2022/05/27 14:39:11;;;;;;;6.10;1.52;;;;;;;;;;6176965;23;20287;-88
2022/05/27 14:42:17;;;;;;;4.53;1.20;;;;;;;;;;6174684;23;20176;-88
2022/05/27 14:45:33;;;;;;;1.85;1.15;;;;;;;;;;6173564;23;20199;-88
2022/05/27 14:48:39;;;;;;;5.60;1.70;;;;;;;;;;6175640;23;20246;-88
2022/05/27 14:51:44;;;;;;;2.30;1.30;;;;;;;;;;6175195;23;20438;-88
2022/05/27 14:54:55;;;;;;;4.65;1.20;;;;;;;;;;6175007;23;20172;-89
2022/05/27 14:58:02;;;;;;;4.80;1.40;;;;;;;;;;6176095;23;20172;-87
2022/05/27 15:01:12;;;;;;;2.58;1.45;;;;;;;;;;6177102;23;20171;-87
2022/05/27 15:04:18;;;;;;;3.65;1.45;;;;;;;;;;6175376;23;20539;-87
2022/05/27 15:07:30;;;;;;;2.25;1.48;;;;;;;;;;6177550;23;20194;-87
2022/05/27 15:10:39;;;;;;;3.92;1.48;;;;;;;;;;6174969;23;20638;-88
2022/05/27 15:13:46;;;;;;;5.90;1.73;;;;;;;;;;6176018;23;20176;-86
2022/05/27 15:16:56;;;;;;;6.13;1.50;;;;;;;;;;6175664;23;20278;-87
2022/05/27 15:20:05;;;;;;;3.42;1.45;;;;;;;;;;6174027;23;20188;-87
2022/05/27 15:23:11;;;;;;;5.45;2.00;;;;;;;;;;6177854;23;20230;-88
2022/05/27 15:33:13;;;;;;;3.15;1.80;;;;;;;;;;6181332;23;20481;-88
2022/05/27 15:36:20;;;;;;;7.90;1.35;;;;;;;;;;6179434;23;20288;-88
2022/05/27 15:39:26;;;;;;;5.38;1.77;;;;;;;;;;6176548;23;20180;-88
2022/05/27 15:42:44;;;;;;;5.10;2.08;;;;;;;;;;6177102;23;20175;-86
2022/05/27 15:45:53;;;;;;;5.50;2.67;;;;;;;;;;6175264;23;20242;-89
2022/05/27 15:48:58;;;;;;;4.95;1.50;;;;;;;;;;6176487;23;20291;-88
2022/05/27 15:52:06;;;;;;;4.05;1.52;;;;;;;;;;6177267;23;20175;-88
2022/05/27 15:55:11;;;;;;;6.63;1.60;;;;;;;;;;6174468;23;20172;-87
2022/05/27 15:58:21;;;;;;;4.03;2.05;;;;;;;;;;6175833;23;20175;-89
2022/05/27 16:01:25;;;;;;;3.55;1.50;;;;;;;;;;6175532;23;20179;-87
2022/05/27 16:04:34;;;;;;;4.07;1.30;;;;;;;;;;6178442;23;20227;-87
2022/05/27 16:07:40;;;;;;;8.70;1.65;;;;;;;;;;6178231;23;20219;-88
2022/05/27 16:10:47;;;;;;;5.57;1.35;;;;;;;;;;6177971;23;20172;-88
2022/05/27 16:13:55;;;;;;;2.55;1.48;;;;;;;;;;6178528;23;20191;-87
2022/05/27 16:20:34;;;;;;;3.58;1.50;;;;;;;;;;6178936;23;20529;-88
2022/05/27 16:23:40;;;;;;;4.07;1.40;;;;;;;;;;6176340;23;20188;-88
2022/05/27 16:26:45;;;;;;;1.88;1.13;;;;;;;;;;6175970;23;20168;-88
2022/05/27 16:29:59;;;;;;;5.43;2.20;;;;;;;;;;6176149;23;20201;-88
2022/05/27 16:33:04;;;;;;;3.50;1.40;;;;;;;;;;6177286;23;20231;-89
2022/05/27 16:36:10;;;;;;;2.88;1.13;;;;;;;;;;6174171;23;20176;-85
2022/05/27 16:39:15;;;;;;;8.48;1.88;;;;;;;;;;6177326;23;20171;-87
2022/05/27 16:42:20;;;;;;;2.67;1.40;;;;;;;;;;6176292;23;20179;-87
2022/05/27 16:45:28;;;;;;;3.47;1.50;;;;;;;;;;6175769;23;20256;-86
2022/05/27 16:48:34;;;;;;;5.63;1.48;;;;;;;;;;6177102;23;20180;-87
2022/05/27 16:51:40;;;;;;;5.13;1.20;;;;;;;;;;6176927;23;20308;-87
2022/05/27 16:54:46;;;;;;;11.23;2.45;;;;;;;;;;6176221;23;20203;-88
2022/05/27 16:57:54;;;;;;;7.13;1.85;;;;;;;;;;6180089;23;20300;-88
2022/05/27 17:01:00;;;;;;;4.28;1.40;;;;;;;;;;6179568;23;20188;-88
2022/05/27 17:04:06;;;;;;;3.08;1.50;;;;;;;;;;6178587;23;20360;-88
2022/05/27 17:07:12;;;;;;;4.05;1.17;;;;;;;;;;6176008;23;20175;-88
2022/05/27 17:10:21;;;;;;;3.83;1.45;;;;;;;;;;6179792;23;20179;-86
2022/05/27 17:13:27;;;;;;;7.03;1.80;;;;;;;;;;6194511;23;20499;-87
2022/05/27 17:16:33;;;;;;;3.72;1.58;;;;;;;;;;6183647;23;20260;-87
2022/05/27 17:19:39;;;;;;;5.07;2.03;;;;;;;;;;6173215;23;20176;-87
2022/05/27 17:22:45;;;;;;;6.95;1.40;;;;;;;;;;6176219;23;20299;-87
2022/05/27 17:25:50;;;;;;;3.70;1.42;;;;;;;;;;6160187;23;20216;-87
2022/05/27 17:28:57;;;;;;;3.85;1.50;;;;;;;;;;6160847;23;20244;-86
2022/05/27 17:32:04;;;;;;;2.72;1.60;;;;;;;;;;6161053;23;20175;-87
2022/05/27 17:35:10;;;;;;;4.25;1.60;;;;;;;;;;6162655;23;20172;-86
2022/05/27 17:38:19;;;;;;;4.50;1.90;;;;;;;;;;6162339;23;20176;-88
2022/05/27 17:41:25;;;;;;;4.35;1.50;;;;;;;;;;6162127;23;20460;-87
2022/05/27 17:44:30;;;;;;;5.82;1.70;;;;;;;;;;6162717;23;20188;-86
2022/05/27 17:54:31;;;;;;;4.32;1.20;;;;;;;;;;6165787;23;20513;-86
2022/05/27 17:57:37;;;;;;;9.43;1.50;;;;;;;;;;6167119;23;20180;-86
2022/05/27 18:00:43;;;;;;;5.47;1.83;;;;;;;;;;6168619;23;20176;-86
2022/05/27 18:03:50;;;;;;;5.20;2.20;;;;;;;;;;6168254;23;20544;-87
2022/05/27 18:06:56;;;;;;;5.28;1.63;;;;;;;;;;6180970;23;20168;-86
2022/05/27 18:13:23;;;;;;;6.65;1.50;;;;;;;;;;6167037;23;20172;-86
2022/05/27 18:16:28;;;;;;;3.20;1.40;;;;;;;;;;6163789;23;20247;-87
2022/05/27 18:23:57;;;;;;;3.35;1.40;;;;;;;;;;6171143;23;20179;-87
2022/05/27 18:27:03;;;;;;;4.45;1.70;;;;;;;;;;6194263;23;20191;-86
2022/05/27 18:30:17;;;;;;;2.13;1.33;;;;;;;;;;6176292;23;20315;-87
2022/05/27 18:33:22;;;;;;;2.35;1.40;;;;;;;;;;6175949;23;20204;-87
2022/05/27 18:36:28;;;;;;;4.18;1.23;;;;;;;;;;6176769;23;20188;-85
2022/05/27 18:39:35;;;;;;;2.88;1.42;;;;;;;;;;6176092;23;20414;-87
2022/05/27 18:42:42;;;;;;;1.50;1.20;;;;;;;;;;6176056;23;20204;-87
2022/05/27 18:45:48;;;;;;;3.53;1.52;;;;;;;;;;6174091;23;20477;-87
2022/05/27 18:48:54;;;;;;;2.63;1.25;;;;;;;;;;6175430;23;20175;-87
2022/05/27 18:51:59;;;;;;;1.55;1.10;;;;;;;;;;6175917;23;20180;-88
2022/05/27 18:55:09;;;;;;;2.55;1.52;;;;;;;;;;6176617;23;20521;-87
2022/05/27 18:58:24;;;;;;;4.25;1.73;;;;;;;;;;6180513;23;20235;-87
2022/05/27 19:01:31;;;;;;;1.80;1.30;;;;;;;;;;6176013;23;20199;-87
2022/05/27 19:04:36;;;;;;;4.22;1.60;;;;;;;;;;6177282;23;20168;-87
2022/05/27 19:07:41;;;;;;;10.10;5.30;;;;;;;;;;6176741;23;20220;-87
2022/05/27 19:10:48;;;;;;;1.52;1.05;;;;;;;;;;6176802;23;20172;-85
2022/05/27 19:13:54;;;;;;;1.42;0.90;;;;;;;;;;6174964;23;20172;-88
2022/05/27 19:17:01;;;;;;;3.40;0.85;;;;;;;;;;6174208;23;20175;-85
2022/05/27 19:23:33;;;;;;;1.20;0.80;;;;;;;;;;6174748;23;20590;-85
2022/05/27 19:26:47;;;;;;;1.58;0.85;;;;;;;;;;6193775;23;20320;-85
2022/05/27 19:30:35;;;;;;;4.28;0.80;;;;;;;;;;6194414;23;20458;-86
2022/05/27 19:33:48;;;;;;;2.58;0.90;;;;;;;;;;6175316;23;20489;-85
2022/05/27 19:36:53;;;;;;;3.10;1.33;;;;;;;;;;6175348;23;20171;-87
2022/05/27 19:39:58;;;;;;;3.00;1.38;;;;;;;;;;6174460;23;20176;-88
2022/05/27 19:43:06;;;;;;;3.28;1.15;;;;;;;;;;6190842;23;20175;-87
2022/05/27 19:46:13;;;;;;;2.88;1.00;;;;;;;;;;6191544;23;20199;-88
2022/05/27 19:49:19;;;;;;;4.35;1.30;;;;;;;;;;6173802;23;20179;-87
2022/05/27 19:52:32;;;;;;;1.40;1.00;;;;;;;;;;6174614;23;20243;-86
2022/05/27 19:55:42;;;;;;;1.35;1.00;;;;;;;;;;6174720;23;20172;-87
2022/05/27 20:05:48;;;;;;;2.63;1.10;;;;;;;;;;6172007;23;20235;-86
2022/05/27 20:08:54;;;;;;;1.88;0.90;;;;;;;;;;6173837;23;20175;-87
2022/05/27 20:12:09;;;;;;;1.65;0.80;;;;;;;;;;6173948;23;20292;-86